sensor_id;sensor_type;location;lat;lon;timestamp;pressure;altitude;pressure_sealevel;temperature;humidity
58622;BME280;44389;51.578;5.456;2022-10-20T00:02:17;101628.03;;;7.90;100.00
58622;BME280;44389;51.578;5.456;2022-10-20T00:04:43;101616.09;;;7.90;100.00
58622;BME280;44389;51.578;5.456;2022-10-20T00:07:08;101607.44;;;7.88;100.00
58622;BME280;44389;51.578;5.456;2022-10-20T00:09:33;101600.38;;;7.84;100.00
58622;BME280;44389;51.578;5.456;2022-10-20T00:11:58;101595.38;;;7.87;100.00
58622;BME280;44389;51.578;5.456;2022-10-20T00:14:24;101591.09;;;7.86;100.00
58622;BME280;44389;51.578;5.456;2022-10-20T00:16:49;101586.81;;;7.87;100.00
58622;BME280;44389;51.578;5.456;2022-10-20T00:19:14;101592.81;;;7.87;100.00
58622;BME280;44389;51.578;5.456;2022-10-20T00:21:39;101586.16;;;7.91;100.00
58622;BME280;44389;51.578;5.456;2022-10-20T00:24:05;101582.66;;;7.89;100.00
58622;BME280;44389;51.578;5.456;2022-10-20T00:26:31;101592.75;;;7.86;100.00
58622;BME280;44389;51.578;5.456;2022-10-20T00:28:57;101580.88;;;7.88;100.00
58622;BME280;44389;51.578;5.456;2022-10-20T00:31:23;101583.53;;;7.89;100.00
58622;BME280;44389;51.578;5.456;2022-10-20T00:33:49;101581.94;;;7.91;100.00
58622;BME280;44389;51.578;5.456;2022-10-20T00:36:16;101584.56;;;7.93;100.00
58622;BME280;44389;51.578;5.456;2022-10-20T00:38:43;101583.53;;;7.89;100.00
58622;BME280;44389;51.578;5.456;2022-10-20T00:41:11;101586.91;;;7.88;100.00
58622;BME280;44389;51.578;5.456;2022-10-20T00:43:51;101563.72;;;7.87;100.00
58622;BME280;44389;51.578;5.456;2022-10-20T00:46:20;101563.16;;;7.76;100.00
58622;BME280;44389;51.578;5.456;2022-10-20T00:48:49;101563.06;;;7.74;100.00
58622;BME280;44389;51.578;5.456;2022-10-20T00:51:18;101554.56;;;7.75;100.00
58622;BME280;44389;51.578;5.456;2022-10-20T00:53:45;101559.78;;;7.61;100.00
58622;BME280;44389;51.578;5.456;2022-10-20T00:56:11;101548.09;;;7.66;100.00
58622;BME280;44389;51.578;5.456;2022-10-20T00:58:36;101545.19;;;7.60;100.00
58622;BME280;44389;51.578;5.456;2022-10-20T01:01:02;101549.28;;;7.56;100.00
58622;BME280;44389;51.578;5.456;2022-10-20T01:03:34;101554.97;;;7.50;100.00
58622;BME280;44389;51.578;5.456;2022-10-20T01:06:01;101548.72;;;7.62;100.00
58622;BME280;44389;51.578;5.456;2022-10-20T01:08:27;101546.00;;;7.58;100.00
58622;BME280;44389;51.578;5.456;2022-10-20T01:27:33;101498.53;;;7.50;100.00
58622;BME280;44389;51.578;5.456;2022-10-20T01:36:13;101482.31;;;7.51;100.00
58622;BME280;44389;51.578;5.456;2022-10-20T01:38:53;101479.75;;;7.51;100.00
58622;BME280;44389;51.578;5.456;2022-10-20T01:43:51;101472.97;;;7.52;100.00
58622;BME280;44389;51.578;5.456;2022-10-20T01:46:20;101472.06;;;7.51;100.00
58622;BME280;44389;51.578;5.456;2022-10-20T01:48:48;101466.66;;;7.45;100.00
58622;BME280;44389;51.578;5.456;2022-10-20T01:51:14;101465.03;;;7.47;100.00
58622;BME280;44389;51.578;5.456;2022-10-20T01:53:39;101468.09;;;7.40;100.00
58622;BME280;44389;51.578;5.456;2022-10-20T01:56:05;101478.34;;;7.40;100.00
58622;BME280;44389;51.578;5.456;2022-10-20T01:58:48;101492.91;;;7.41;100.00
58622;BME280;44389;51.578;5.456;2022-10-20T02:01:21;101484.50;;;7.44;100.00
58622;BME280;44389;51.578;5.456;2022-10-20T02:03:57;101485.38;;;7.44;100.00
58622;BME280;44389;51.578;5.456;2022-10-20T02:06:34;101479.34;;;7.44;100.00
58622;BME280;44389;51.578;5.456;2022-10-20T02:09:06;101476.50;;;7.37;100.00
58622;BME280;44389;51.578;5.456;2022-10-20T02:12:02;101464.88;;;7.44;100.00
58622;BME280;44389;51.578;5.456;2022-10-20T02:14:30;101460.53;;;7.43;100.00
58622;BME280;44389;51.578;5.456;2022-10-20T02:17:01;101456.22;;;7.42;100.00
58622;BME280;44389;51.578;5.456;2022-10-20T02:19:32;101457.09;;;7.43;100.00
58622;BME280;44389;51.578;5.456;2022-10-20T02:21:58;101461.34;;;7.42;100.00
58622;BME280;44389;51.578;5.456;2022-10-20T02:24:28;101451.72;;;7.38;100.00
58622;BME280;44389;51.578;5.456;2022-10-20T02:26:57;101446.44;;;7.35;100.00
58622;BME280;44389;51.578;5.456;2022-10-20T02:29:28;101443.88;;;7.35;100.00
58622;BME280;44389;51.578;5.456;2022-10-20T02:31:57;101432.66;;;7.33;100.00
58622;BME280;44389;51.578;5.456;2022-10-20T02:34:25;101434.34;;;7.32;100.00
58622;BME280;44389;51.578;5.456;2022-10-20T02:36:55;101429.94;;;7.30;100.00
58622;BME280;44389;51.578;5.456;2022-10-20T02:39:20;101422.56;;;7.19;100.00
58622;BME280;44389;51.578;5.456;2022-10-20T02:41:46;101411.81;;;7.27;100.00
58622;BME280;44389;51.578;5.456;2022-10-20T02:44:11;101411.66;;;7.23;100.00
58622;BME280;44389;51.578;5.456;2022-10-20T02:46:36;101406.28;;;7.19;100.00
58622;BME280;44389;51.578;5.456;2022-10-20T02:49:01;101398.84;;;7.23;100.00
58622;BME280;44389;51.578;5.456;2022-10-20T02:51:27;101384.91;;;7.18;100.00
58622;BME280;44389;51.578;5.456;2022-10-20T02:53:52;101387.53;;;7.20;100.00
58622;BME280;44389;51.578;5.456;2022-10-20T02:56:18;101383.22;;;7.19;100.00
58622;BME280;44389;51.578;5.456;2022-10-20T02:58:44;101367.44;;;7.28;100.00
58622;BME280;44389;51.578;5.456;2022-10-20T03:01:09;101366.56;;;7.27;100.00
58622;BME280;44389;51.578;5.456;2022-10-20T03:03:34;101356.94;;;7.23;100.00
58622;BME280;44389;51.578;5.456;2022-10-20T03:06:11;101356.44;;;7.30;100.00
58622;BME280;44389;51.578;5.456;2022-10-20T03:08:37;101348.75;;;7.30;100.00
58622;BME280;44389;51.578;5.456;2022-10-20T03:11:02;101343.69;;;7.32;100.00
58622;BME280;44389;51.578;5.456;2022-10-20T03:13:28;101344.69;;;7.34;100.00
58622;BME280;44389;51.578;5.456;2022-10-20T03:15:53;101347.16;;;7.32;100.00
58622;BME280;44389;51.578;5.456;2022-10-20T03:18:18;101348.03;;;7.33;100.00
58622;BME280;44389;51.578;5.456;2022-10-20T03:20:43;101342.91;;;7.33;100.00
58622;BME280;44389;51.578;5.456;2022-10-20T03:23:09;101329.13;;;7.31;100.00
58622;BME280;44389;51.578;5.456;2022-10-20T03:25:34;101325.09;;;7.36;100.00
58622;BME280;44389;51.578;5.456;2022-10-20T03:27:59;101322.47;;;7.34;100.00
58622;BME280;44389;51.578;5.456;2022-10-20T03:30:25;101311.72;;;7.41;100.00
58622;BME280;44389;51.578;5.456;2022-10-20T03:32:50;101323.50;;;7.38;100.00
58622;BME280;44389;51.578;5.456;2022-10-20T03:35:16;101313.69;;;7.47;100.00
58622;BME280;44389;51.578;5.456;2022-10-20T03:37:41;101312.75;;;7.45;100.00
58622;BME280;44389;51.578;5.456;2022-10-20T03:40:07;101310.41;;;7.50;100.00
58622;BME280;44389;51.578;5.456;2022-10-20T03:42:32;101308.81;;;7.52;100.00
58622;BME280;44389;51.578;5.456;2022-10-20T03:44:57;101309.19;;;7.60;100.00
58622;BME280;44389;51.578;5.456;2022-10-20T03:47:22;101311.75;;;7.60;100.00
58622;BME280;44389;51.578;5.456;2022-10-20T03:49:48;101301.81;;;7.66;100.00
58622;BME280;44389;51.578;5.456;2022-10-20T03:52:13;101306.94;;;7.66;100.00
58622;BME280;44389;51.578;5.456;2022-10-20T03:54:38;101301.94;;;7.69;100.00
58622;BME280;44389;51.578;5.456;2022-10-20T03:57:05;101295.03;;;7.68;100.00
58622;BME280;44389;51.578;5.456;2022-10-20T03:59:30;101289.03;;;7.67;100.00
58622;BME280;44389;51.578;5.456;2022-10-20T04:01:56;101279.22;;;7.77;100.00
58622;BME280;44389;51.578;5.456;2022-10-20T04:04:21;101282.59;;;7.75;100.00
58622;BME280;44389;51.578;5.456;2022-10-20T04:06:46;101287.66;;;7.74;100.00
58622;BME280;44389;51.578;5.456;2022-10-20T04:09:11;101288.81;;;7.81;100.00
58622;BME280;44389;51.578;5.456;2022-10-20T04:11:37;101284.66;;;7.83;100.00
58622;BME280;44389;51.578;5.456;2022-10-20T04:14:02;101278.06;;;7.88;100.00
58622;BME280;44389;51.578;5.456;2022-10-20T04:16:27;101283.38;;;7.93;100.00
58622;BME280;44389;51.578;5.456;2022-10-20T04:18:54;101285.94;;;7.93;100.00
58622;BME280;44389;51.578;5.456;2022-10-20T04:21:19;101268.88;;;7.93;100.00
58622;BME280;44389;51.578;5.456;2022-10-20T04:23:44;101270.72;;;7.96;100.00
58622;BME280;44389;51.578;5.456;2022-10-20T04:26:12;101264.03;;;7.99;100.00
58622;BME280;44389;51.578;5.456;2022-10-20T04:28:38;101245.03;;;7.96;100.00
58622;BME280;44389;51.578;5.456;2022-10-20T04:31:04;101249.50;;;8.00;100.00
58622;BME280;44389;51.578;5.456;2022-10-20T04:33:30;101234.25;;;8.03;100.00
58622;BME280;44389;51.578;5.456;2022-10-20T04:35:57;101248.03;;;8.05;100.00
58622;BME280;44389;51.578;5.456;2022-10-20T04:38:22;101246.63;;;8.12;100.00
58622;BME280;44389;51.578;5.456;2022-10-20T04:40:55;101242.66;;;8.18;100.00
58622;BME280;44389;51.578;5.456;2022-10-20T04:43:20;101236.03;;;8.23;100.00
58622;BME280;44389;51.578;5.456;2022-10-20T04:45:45;101234.41;;;8.26;100.00
58622;BME280;44389;51.578;5.456;2022-10-20T04:48:10;101235.97;;;8.22;100.00
58622;BME280;44389;51.578;5.456;2022-10-20T04:50:36;101227.88;;;8.32;100.00
58622;BME280;44389;51.578;5.456;2022-10-20T04:53:01;101229.00;;;8.39;100.00
58622;BME280;44389;51.578;5.456;2022-10-20T04:55:26;101217.19;;;8.43;100.00
58622;BME280;44389;51.578;5.456;2022-10-20T04:57:51;101210.44;;;8.45;100.00
58622;BME280;44389;51.578;5.456;2022-10-20T05:00:17;101204.72;;;8.50;100.00
58622;BME280;44389;51.578;5.456;2022-10-20T05:02:42;101209.50;;;8.62;100.00
58622;BME280;44389;51.578;5.456;2022-10-20T05:05:08;101205.53;;;8.69;100.00
58622;BME280;44389;51.578;5.456;2022-10-20T05:07:33;101194.84;;;8.79;100.00
58622;BME280;44389;51.578;5.456;2022-10-20T05:09:58;101201.28;;;8.90;100.00
58622;BME280;44389;51.578;5.456;2022-10-20T05:12:24;101199.09;;;9.00;100.00
58622;BME280;44389;51.578;5.456;2022-10-20T05:14:49;101196.84;;;9.07;100.00
58622;BME280;44389;51.578;5.456;2022-10-20T05:17:14;101219.22;;;9.10;100.00
58622;BME280;44389;51.578;5.456;2022-10-20T05:19:39;101224.56;;;9.15;100.00
58622;BME280;44389;51.578;5.456;2022-10-20T05:22:05;101227.16;;;9.15;100.00
58622;BME280;44389;51.578;5.456;2022-10-20T05:24:30;101192.91;;;9.16;100.00
58622;BME280;44389;51.578;5.456;2022-10-20T05:26:55;101180.09;;;9.17;100.00
58622;BME280;44389;51.578;5.456;2022-10-20T05:29:21;101164.56;;;9.14;100.00
58622;BME280;44389;51.578;5.456;2022-10-20T05:31:46;101178.22;;;9.13;100.00
58622;BME280;44389;51.578;5.456;2022-10-20T05:34:11;101188.53;;;9.13;100.00
58622;BME280;44389;51.578;5.456;2022-10-20T05:36:37;101200.56;;;9.14;100.00
58622;BME280;44389;51.578;5.456;2022-10-20T05:39:02;101190.41;;;9.17;100.00
58622;BME280;44389;51.578;5.456;2022-10-20T05:41:30;101195.53;;;9.17;100.00
58622;BME280;44389;51.578;5.456;2022-10-20T05:44:01;101192.00;;;9.15;100.00
58622;BME280;44389;51.578;5.456;2022-10-20T05:46:29;101203.94;;;9.13;100.00
58622;BME280;44389;51.578;5.456;2022-10-20T05:48:56;101175.81;;;9.18;100.00
58622;BME280;44389;51.578;5.456;2022-10-20T05:51:24;101170.78;;;9.19;100.00
58622;BME280;44389;51.578;5.456;2022-10-20T05:53:53;101180.97;;;9.18;100.00
58622;BME280;44389;51.578;5.456;2022-10-20T05:56:20;101175.97;;;9.21;100.00
58622;BME280;44389;51.578;5.456;2022-10-20T05:58:45;101177.59;;;9.19;100.00
58622;BME280;44389;51.578;5.456;2022-10-20T06:01:15;101196.41;;;9.18;100.00
58622;BME280;44389;51.578;5.456;2022-10-20T06:03:46;101187.81;;;9.17;100.00
58622;BME280;44389;51.578;5.456;2022-10-20T06:06:11;101195.53;;;9.17;100.00
58622;BME280;44389;51.578;5.456;2022-10-20T06:08:37;101191.25;;;9.18;100.00
58622;BME280;44389;51.578;5.456;2022-10-20T06:11:08;101194.47;;;9.12;100.00
58622;BME280;44389;51.578;5.456;2022-10-20T06:13:33;101191.91;;;9.12;100.00
58622;BME280;44389;51.578;5.456;2022-10-20T06:16:08;101192.91;;;9.16;100.00
58622;BME280;44389;51.578;5.456;2022-10-20T06:18:34;101189.38;;;9.14;100.00
58622;BME280;44389;51.578;5.456;2022-10-20T06:21:04;101185.25;;;9.17;100.00
58622;BME280;44389;51.578;5.456;2022-10-20T06:23:30;101178.41;;;9.18;100.00
58622;BME280;44389;51.578;5.456;2022-10-20T06:26:01;101184.19;;;9.12;100.00
58622;BME280;44389;51.578;5.456;2022-10-20T06:28:29;101185.38;;;9.20;100.00
58622;BME280;44389;51.578;5.456;2022-10-20T06:30:55;101194.84;;;9.21;100.00
58622;BME280;44389;51.578;5.456;2022-10-20T06:33:20;101204.38;;;9.24;100.00
58622;BME280;44389;51.578;5.456;2022-10-20T06:35:45;101204.50;;;9.27;100.00
58622;BME280;44389;51.578;5.456;2022-10-20T06:38:11;101182.34;;;9.31;100.00
58622;BME280;44389;51.578;5.456;2022-10-20T06:40:36;101183.19;;;9.30;100.00
58622;BME280;44389;51.578;5.456;2022-10-20T06:43:01;101191.97;;;9.35;100.00
58622;BME280;44389;51.578;5.456;2022-10-20T06:45:26;101182.59;;;9.37;100.00
58622;BME280;44389;51.578;5.456;2022-10-20T06:47:52;101182.66;;;9.38;100.00
58622;BME280;44389;51.578;5.456;2022-10-20T06:50:17;101170.75;;;9.41;100.00
58622;BME280;44389;51.578;5.456;2022-10-20T06:52:42;101173.50;;;9.45;100.00
58622;BME280;44389;51.578;5.456;2022-10-20T06:55:08;101181.34;;;9.48;100.00
58622;BME280;44389;51.578;5.456;2022-10-20T06:57:33;101175.47;;;9.52;100.00
58622;BME280;44389;51.578;5.456;2022-10-20T06:59:58;101164.38;;;9.53;100.00
58622;BME280;44389;51.578;5.456;2022-10-20T07:02:24;101163.63;;;9.56;100.00
58622;BME280;44389;51.578;5.456;2022-10-20T07:04:49;101156.84;;;9.58;100.00
58622;BME280;44389;51.578;5.456;2022-10-20T07:07:14;101159.53;;;9.61;100.00
58622;BME280;44389;51.578;5.456;2022-10-20T07:09:40;101151.91;;;9.64;100.00
58622;BME280;44389;51.578;5.456;2022-10-20T07:12:05;101149.44;;;9.66;100.00
58622;BME280;44389;51.578;5.456;2022-10-20T07:14:30;101151.34;;;9.71;100.00
58622;BME280;44389;51.578;5.456;2022-10-20T07:16:55;101160.81;;;9.72;100.00
58622;BME280;44389;51.578;5.456;2022-10-20T07:19:21;101166.13;;;9.77;100.00
58622;BME280;44389;51.578;5.456;2022-10-20T07:21:46;101168.88;;;9.82;100.00
58622;BME280;44389;51.578;5.456;2022-10-20T07:24:12;101165.56;;;9.84;100.00
58622;BME280;44389;51.578;5.456;2022-10-20T07:26:39;101169.13;;;9.88;100.00
58622;BME280;44389;51.578;5.456;2022-10-20T07:29:05;101176.09;;;9.91;100.00
58622;BME280;44389;51.578;5.456;2022-10-20T07:31:52;101180.53;;;9.95;100.00
58622;BME280;44389;51.578;5.456;2022-10-20T07:34:17;101174.81;;;10.02;100.00
58622;BME280;44389;51.578;5.456;2022-10-20T07:36:44;101165.47;;;10.05;100.00
58622;BME280;44389;51.578;5.456;2022-10-20T07:39:11;101166.47;;;10.09;100.00
58622;BME280;44389;51.578;5.456;2022-10-20T07:41:37;101175.22;;;10.14;100.00
58622;BME280;44389;51.578;5.456;2022-10-20T07:44:04;101182.25;;;10.18;100.00
58622;BME280;44389;51.578;5.456;2022-10-20T07:46:30;101177.31;;;10.25;100.00
58622;BME280;44389;51.578;5.456;2022-10-20T07:48:55;101172.31;;;10.28;100.00
58622;BME280;44389;51.578;5.456;2022-10-20T07:53:47;101176.06;;;10.36;100.00
58622;BME280;44389;51.578;5.456;2022-10-20T07:56:12;101170.31;;;10.43;100.00
58622;BME280;44389;51.578;5.456;2022-10-20T07:58:38;101169.63;;;10.49;100.00
58622;BME280;44389;51.578;5.456;2022-10-20T08:01:04;101178.44;;;10.56;100.00
58622;BME280;44389;51.578;5.456;2022-10-20T08:03:29;101176.09;;;10.62;100.00
58622;BME280;44389;51.578;5.456;2022-10-20T08:05:54;101174.59;;;10.68;100.00
58622;BME280;44389;51.578;5.456;2022-10-20T08:08:20;101169.66;;;10.75;100.00
58622;BME280;44389;51.578;5.456;2022-10-20T08:10:45;101160.38;;;10.80;100.00
58622;BME280;44389;51.578;5.456;2022-10-20T08:13:10;101160.75;;;10.92;100.00
58622;BME280;44389;51.578;5.456;2022-10-20T08:15:36;101153.19;;;10.97;100.00
58622;BME280;44389;51.578;5.456;2022-10-20T08:18:01;101161.13;;;11.03;100.00
58622;BME280;44389;51.578;5.456;2022-10-20T08:20:26;101165.59;;;11.09;100.00
58622;BME280;44389;51.578;5.456;2022-10-20T08:22:51;101163.28;;;11.16;100.00
58622;BME280;44389;51.578;5.456;2022-10-20T08:25:17;101155.13;;;11.30;100.00
58622;BME280;44389;51.578;5.456;2022-10-20T08:27:42;101159.63;;;11.37;100.00
58622;BME280;44389;51.578;5.456;2022-10-20T08:30:08;101164.03;;;11.41;100.00
58622;BME280;44389;51.578;5.456;2022-10-20T08:32:34;101146.28;;;11.50;100.00
58622;BME280;44389;51.578;5.456;2022-10-20T08:34:59;101144.56;;;11.51;100.00
58622;BME280;44389;51.578;5.456;2022-10-20T08:37:24;101155.09;;;11.57;100.00
58622;BME280;44389;51.578;5.456;2022-10-20T08:39:50;101144.06;;;11.63;100.00
58622;BME280;44389;51.578;5.456;2022-10-20T08:42:15;101144.34;;;11.72;100.00
58622;BME280;44389;51.578;5.456;2022-10-20T08:44:43;101159.03;;;11.75;100.00
58622;BME280;44389;51.578;5.456;2022-10-20T08:47:25;101153.38;;;11.86;100.00
58622;BME280;44389;51.578;5.456;2022-10-20T08:49:51;101153.75;;;11.99;100.00
58622;BME280;44389;51.578;5.456;2022-10-20T08:52:22;101145.78;;;12.22;100.00
58622;BME280;44389;51.578;5.456;2022-10-20T08:54:51;101143.06;;;12.49;100.00
58622;BME280;44389;51.578;5.456;2022-10-20T08:57:22;101145.09;;;12.61;100.00
58622;BME280;44389;51.578;5.456;2022-10-20T08:59:51;101135.81;;;12.69;100.00
58622;BME280;44389;51.578;5.456;2022-10-20T09:02:17;101124.81;;;12.76;99.46
58622;BME280;44389;51.578;5.456;2022-10-20T09:04:51;101127.53;;;12.82;98.73
58622;BME280;44389;51.578;5.456;2022-10-20T09:07:32;101121.66;;;12.90;99.32
58622;BME280;44389;51.578;5.456;2022-10-20T09:10:24;101124.34;;;12.93;99.81
58622;BME280;44389;51.578;5.456;2022-10-20T09:12:51;101126.84;;;12.90;98.94
58622;BME280;44389;51.578;5.456;2022-10-20T09:15:17;101128.59;;;12.91;98.97
58622;BME280;44389;51.578;5.456;2022-10-20T09:17:48;101125.19;;;12.92;99.04
58622;BME280;44389;51.578;5.456;2022-10-20T09:20:19;101124.25;;;12.90;99.24
58622;BME280;44389;51.578;5.456;2022-10-20T09:22:46;101127.78;;;12.92;99.62
58622;BME280;44389;51.578;5.456;2022-10-20T09:25:14;101128.59;;;12.91;99.63
58622;BME280;44389;51.578;5.456;2022-10-20T09:27:41;101117.38;;;12.90;99.95
58622;BME280;44389;51.578;5.456;2022-10-20T09:32:39;101116.47;;;12.88;100.00
58622;BME280;44389;51.578;5.456;2022-10-20T09:37:41;101122.66;;;12.95;100.00
58622;BME280;44389;51.578;5.456;2022-10-20T09:40:14;101129.59;;;12.96;100.00
58622;BME280;44389;51.578;5.456;2022-10-20T09:42:50;101128.63;;;12.92;100.00
58622;BME280;44389;51.578;5.456;2022-10-20T09:45:19;101133.00;;;12.95;100.00
58622;BME280;44389;51.578;5.456;2022-10-20T09:47:49;101135.59;;;12.95;100.00
58622;BME280;44389;51.578;5.456;2022-10-20T09:50:24;101133.00;;;12.95;100.00
58622;BME280;44389;51.578;5.456;2022-10-20T09:52:51;101140.75;;;12.95;100.00
58622;BME280;44389;51.578;5.456;2022-10-20T09:55:29;101130.41;;;12.95;100.00
58622;BME280;44389;51.578;5.456;2022-10-20T09:57:58;101122.66;;;12.95;100.00
58622;BME280;44389;51.578;5.456;2022-10-20T10:00:28;101113.03;;;12.89;100.00
58622;BME280;44389;51.578;5.456;2022-10-20T10:03:07;101113.06;;;12.91;100.00
58622;BME280;44389;51.578;5.456;2022-10-20T10:05:34;101111.25;;;12.87;100.00
58622;BME280;44389;51.578;5.456;2022-10-20T10:08:00;101115.47;;;12.83;100.00
58622;BME280;44389;51.578;5.456;2022-10-20T10:10:28;101113.69;;;12.80;100.00
58622;BME280;44389;51.578;5.456;2022-10-20T10:12:56;101116.22;;;12.77;100.00
58622;BME280;44389;51.578;5.456;2022-10-20T10:15:27;101118.63;;;12.71;100.00
58622;BME280;44389;51.578;5.456;2022-10-20T10:17:54;101116.81;;;12.67;100.00
58622;BME280;44389;51.578;5.456;2022-10-20T10:22:45;101114.09;;;12.62;100.00
58622;BME280;44389;51.578;5.456;2022-10-20T10:25:17;101125.22;;;12.58;100.00
58622;BME280;44389;51.578;5.456;2022-10-20T10:28:03;101113.09;;;12.57;100.00
58622;BME280;44389;51.578;5.456;2022-10-20T10:30:37;101103.56;;;12.55;100.00
58622;BME280;44389;51.578;5.456;2022-10-20T10:33:25;101101.81;;;12.54;100.00
58622;BME280;44389;51.578;5.456;2022-10-20T10:35:51;101092.25;;;12.51;100.00
58622;BME280;44389;51.578;5.456;2022-10-20T10:38:16;101086.19;;;12.49;100.00
58622;BME280;44389;51.578;5.456;2022-10-20T10:40:49;101093.06;;;12.48;100.00
58622;BME280;44389;51.578;5.456;2022-10-20T10:43:23;101078.41;;;12.47;100.00
58622;BME280;44389;51.578;5.456;2022-10-20T10:46:00;101078.34;;;12.46;100.00
58622;BME280;44389;51.578;5.456;2022-10-20T10:56:51;101093.78;;;12.43;100.00
58622;BME280;44389;51.578;5.456;2022-10-20T10:59:24;101092.00;;;12.40;100.00
58622;BME280;44389;51.578;5.456;2022-10-20T11:07:43;101077.28;;;12.38;100.00
58622;BME280;44389;51.578;5.456;2022-10-20T11:10:39;101072.09;;;12.36;100.00
58622;BME280;44389;51.578;5.456;2022-10-20T11:13:30;101079.00;;;12.37;100.00
58622;BME280;44389;51.578;5.456;2022-10-20T11:16:26;101059.22;;;12.39;100.00
58622;BME280;44389;51.578;5.456;2022-10-20T11:19:06;101054.88;;;12.38;100.00
58622;BME280;44389;51.578;5.456;2022-10-20T11:27:34;101053.19;;;12.39;100.00
58622;BME280;44389;51.578;5.456;2022-10-20T11:30:03;101058.38;;;12.39;100.00
58622;BME280;44389;51.578;5.456;2022-10-20T11:32:38;101054.06;;;12.39;100.00
58622;BME280;44389;51.578;5.456;2022-10-20T11:40:21;101025.56;;;12.36;100.00
58622;BME280;44389;51.578;5.456;2022-10-20T11:45:33;101016.75;;;12.28;100.00
58622;BME280;44389;51.578;5.456;2022-10-20T11:48:25;101004.72;;;12.30;100.00
58622;BME280;44389;51.578;5.456;2022-10-20T11:54:21;101010.06;;;12.36;100.00
58622;BME280;44389;51.578;5.456;2022-10-20T12:05:19;101003.88;;;12.66;100.00
58622;BME280;44389;51.578;5.456;2022-10-20T12:07:58;101018.66;;;12.72;100.00
58622;BME280;44389;51.578;5.456;2022-10-20T12:10:42;101007.59;;;12.77;100.00
58622;BME280;44389;51.578;5.456;2022-10-20T12:15:47;101002.56;;;12.83;100.00
58622;BME280;44389;51.578;5.456;2022-10-20T12:18:21;101005.22;;;12.88;100.00
58622;BME280;44389;51.578;5.456;2022-10-20T12:21:06;101000.94;;;12.89;100.00
58622;BME280;44389;51.578;5.456;2022-10-20T12:28:56;101009.47;;;12.84;100.00
58622;BME280;44389;51.578;5.456;2022-10-20T12:31:22;100989.53;;;12.80;100.00
58622;BME280;44389;51.578;5.456;2022-10-20T12:38:42;100996.59;;;12.86;100.00
58622;BME280;44389;51.578;5.456;2022-10-20T12:41:11;100994.97;;;12.91;100.00
58622;BME280;44389;51.578;5.456;2022-10-20T12:43:51;100997.78;;;13.02;100.00
58622;BME280;44389;51.578;5.456;2022-10-20T12:46:22;100998.78;;;13.09;100.00
58622;BME280;44389;51.578;5.456;2022-10-20T12:48:51;101001.47;;;13.13;100.00
58622;BME280;44389;51.578;5.456;2022-10-20T12:51:47;100991.34;;;13.24;100.00
58622;BME280;44389;51.578;5.456;2022-10-20T12:54:36;100990.69;;;13.34;100.00
58622;BME280;44389;51.578;5.456;2022-10-20T12:59:49;100980.16;;;14.15;100.00
58622;BME280;44389;51.578;5.456;2022-10-20T13:15:25;100967.78;;;15.89;100.00
58622;BME280;44389;51.578;5.456;2022-10-20T13:17:55;100962.56;;;15.88;100.00
58622;BME280;44389;51.578;5.456;2022-10-20T13:20:48;100967.13;;;16.12;100.00
58622;BME280;44389;51.578;5.456;2022-10-20T13:23:22;100959.28;;;16.04;100.00
58622;BME280;44389;51.578;5.456;2022-10-20T13:25:51;100952.31;;;16.00;100.00
58622;BME280;44389;51.578;5.456;2022-10-20T13:28:21;100945.56;;;16.24;100.00
58622;BME280;44389;51.578;5.456;2022-10-20T13:33:48;100940.03;;;15.84;100.00
58622;BME280;44389;51.578;5.456;2022-10-20T13:39:16;100927.16;;;15.99;100.00
58622;BME280;44389;51.578;5.456;2022-10-20T13:44:31;100924.81;;;16.33;100.00
58622;BME280;44389;51.578;5.456;2022-10-20T13:47:29;100930.00;;;16.28;100.00
58622;BME280;44389;51.578;5.456;2022-10-20T13:50:29;100926.44;;;16.20;100.00
58622;BME280;44389;51.578;5.456;2022-10-20T13:53:03;100923.00;;;16.20;100.00
58622;BME280;44389;51.578;5.456;2022-10-20T13:55:53;100927.47;;;16.38;100.00
58622;BME280;44389;51.578;5.456;2022-10-20T13:58:21;100930.13;;;16.47;100.00
58622;BME280;44389;51.578;5.456;2022-10-20T14:01:16;100928.50;;;16.66;100.00
58622;BME280;44389;51.578;5.456;2022-10-20T14:03:48;100923.25;;;16.58;100.00
58622;BME280;44389;51.578;5.456;2022-10-20T14:06:45;100921.53;;;16.62;100.00
58622;BME280;44389;51.578;5.456;2022-10-20T14:09:14;100911.00;;;16.40;100.00
58622;BME280;44389;51.578;5.456;2022-10-20T14:11:43;100909.22;;;16.33;100.00
58622;BME280;44389;51.578;5.456;2022-10-20T14:14:12;100910.91;;;16.25;100.00
58622;BME280;44389;51.578;5.456;2022-10-20T14:16:47;100906.53;;;16.21;100.00
58622;BME280;44389;51.578;5.456;2022-10-20T14:19:13;100901.22;;;16.08;100.00
58622;BME280;44389;51.578;5.456;2022-10-20T14:21:41;100905.44;;;15.94;100.00
58622;BME280;44389;51.578;5.456;2022-10-20T14:24:12;100901.16;;;15.96;100.00
58622;BME280;44389;51.578;5.456;2022-10-20T14:26:41;100884.66;;;15.94;100.00
58622;BME280;44389;51.578;5.456;2022-10-20T14:29:10;100891.56;;;15.90;100.00
58622;BME280;44389;51.578;5.456;2022-10-20T14:31:36;100889.84;;;15.91;100.00
58622;BME280;44389;51.578;5.456;2022-10-20T14:34:02;100893.31;;;15.93;100.00
58622;BME280;44389;51.578;5.456;2022-10-20T14:36:28;100894.19;;;15.93;100.00
58622;BME280;44389;51.578;5.456;2022-10-20T14:38:56;100886.41;;;15.98;100.00
58622;BME280;44389;51.578;5.456;2022-10-20T14:41:32;100892.47;;;15.97;100.00
58622;BME280;44389;51.578;5.456;2022-10-20T14:44:00;100902.00;;;15.95;100.00
58622;BME280;44389;51.578;5.456;2022-10-20T14:46:35;100900.25;;;15.91;100.00
58622;BME280;44389;51.578;5.456;2022-10-20T14:49:02;100896.72;;;15.86;100.00